Topaz Ranch Estates, Nevada
Current Conditions -  °F | °C
As of 9:52 PM on Wednesday 26 Nov 2014 (Local Time) from KBAN Reporting Station
Clear Clear  
Wind Chill: 37°   Ceiling: Unl
Heat Index: 37°   Visibility: NA
Dew Point: 23°   Wind: 0mph
Humidity: 57%   Direction: NA
Pressure: 30.43"   Gusts: NA
Location:  38.7596°N, 119.34°W
Report Text: KBAN 270552Z AUTO 00000KT CLR 03/M05 A3043 RMK AO2 SLP288 T00281050 10161 20011 58001 $
Loading
Personal Weather Stations






























Interactive Weather Map New forecast layout! Learn more

10-Day Weather Forecast

Advertisements
Track Severe Weather on mobile